sensor_id;sensor_type;location;lat;lon;timestamp;pressure;altitude;pressure_sealevel;temperature;humidity
64192;BME280;50497;50.720;-2.084;2023-01-26T00:00:58;102727.72;;;3.42;100.00
64192;BME280;50497;50.720;-2.084;2023-01-26T00:03:24;102695.09;;;3.43;100.00
64192;BME280;50497;50.720;-2.084;2023-01-26T00:05:50;102666.72;;;3.31;100.00
64192;BME280;50497;50.720;-2.084;2023-01-26T00:08:15;102635.81;;;3.28;100.00
64192;BME280;50497;50.720;-2.084;2023-01-26T00:10:47;102606.84;;;3.39;100.00
64192;BME280;50497;50.720;-2.084;2023-01-26T00:13:18;102602.47;;;3.41;100.00
64192;BME280;50497;50.720;-2.084;2023-01-26T00:15:47;102569.59;;;3.21;100.00
64192;BME280;50497;50.720;-2.084;2023-01-26T00:18:13;102577.47;;;3.18;100.00
64192;BME280;50497;50.720;-2.084;2023-01-26T00:20:39;102578.34;;;3.17;100.00
64192;BME280;50497;50.720;-2.084;2023-01-26T00:23:04;102553.59;;;3.11;100.00
64192;BME280;50497;50.720;-2.084;2023-01-26T00:25:33;102578.34;;;3.17;100.00
64192;BME280;50497;50.720;-2.084;2023-01-26T00:28:02;102563.47;;;3.26;100.00
64192;BME280;50497;50.720;-2.084;2023-01-26T00:30:27;102567.66;;;3.07;100.00
64192;BME280;50497;50.720;-2.084;2023-01-26T00:32:53;102557.78;;;2.92;100.00
64192;BME280;50497;50.720;-2.084;2023-01-26T00:35:23;102558.69;;;2.96;100.00
64192;BME280;50497;50.720;-2.084;2023-01-26T00:37:48;102554.31;;;3.00;100.00
64192;BME280;50497;50.720;-2.084;2023-01-26T00:40:14;102557.97;;;3.08;100.00
64192;BME280;50497;50.720;-2.084;2023-01-26T00:42:43;102548.31;;;3.11;100.00
64192;BME280;50497;50.720;-2.084;2023-01-26T00:45:14;102540.34;;;3.10;100.00
64192;BME280;50497;50.720;-2.084;2023-01-26T00:47:40;102538.34;;;2.92;100.00
64192;BME280;50497;50.720;-2.084;2023-01-26T00:50:05;102549.88;;;2.95;100.00
64192;BME280;50497;50.720;-2.084;2023-01-26T00:52:31;102552.47;;;2.91;100.00
64192;BME280;50497;50.720;-2.084;2023-01-26T00:54:56;102557.78;;;2.94;100.00
64192;BME280;50497;50.720;-2.084;2023-01-26T00:57:22;102554.16;;;2.89;100.00
64192;BME280;50497;50.720;-2.084;2023-01-26T00:59:51;102557.78;;;2.94;100.00
64192;BME280;50497;50.720;-2.084;2023-01-26T01:02:16;102569.03;;;2.79;100.00
64192;BME280;50497;50.720;-2.084;2023-01-26T01:04:41;102559.31;;;2.76;100.00
64192;BME280;50497;50.720;-2.084;2023-01-26T01:07:10;102561.03;;;2.73;100.00
64192;BME280;50497;50.720;-2.084;2023-01-26T01:09:36;102561.91;;;2.75;100.00
64192;BME280;50497;50.720;-2.084;2023-01-26T01:12:01;102566.22;;;2.67;100.00
64192;BME280;50497;50.720;-2.084;2023-01-26T01:14:27;102568.09;;;2.75;100.00
64192;BME280;50497;50.720;-2.084;2023-01-26T01:16:52;102550.22;;;2.57;100.00
64192;BME280;50497;50.720;-2.084;2023-01-26T01:19:18;102574.09;;;2.64;100.00
64192;BME280;50497;50.720;-2.084;2023-01-26T01:21:44;102580.25;;;2.63;100.00
64192;BME280;50497;50.720;-2.084;2023-01-26T01:24:10;102582.19;;;2.74;100.00
64192;BME280;50497;50.720;-2.084;2023-01-26T01:26:40;102583.66;;;2.57;100.00
64192;BME280;50497;50.720;-2.084;2023-01-26T01:29:10;102588.00;;;2.52;100.00
64192;BME280;50497;50.720;-2.084;2023-01-26T01:31:39;102605.66;;;2.53;100.00
64192;BME280;50497;50.720;-2.084;2023-01-26T01:34:08;102607.41;;;2.54;100.00
64192;BME280;50497;50.720;-2.084;2023-01-26T01:36:33;102615.34;;;2.55;100.00
64192;BME280;50497;50.720;-2.084;2023-01-26T01:38:59;102601.91;;;2.40;100.00
64192;BME280;50497;50.720;-2.084;2023-01-26T01:41:28;102615.16;;;2.42;100.00
64192;BME280;50497;50.720;-2.084;2023-01-26T01:44:22;102611.72;;;2.49;100.00
64192;BME280;50497;50.720;-2.084;2023-01-26T01:47:21;102619.53;;;2.39;100.00
64192;BME280;50497;50.720;-2.084;2023-01-26T01:49:54;102625.53;;;2.32;100.00
64192;BME280;50497;50.720;-2.084;2023-01-26T01:52:25;102625.00;;;2.52;100.00
64192;BME280;50497;50.720;-2.084;2023-01-26T01:55:05;102627.47;;;2.41;100.00
64192;BME280;50497;50.720;-2.084;2023-01-26T01:57:41;102637.16;;;2.42;100.00
64192;BME280;50497;50.720;-2.084;2023-01-26T02:00:14;102633.63;;;2.42;100.00
64192;BME280;50497;50.720;-2.084;2023-01-26T02:02:42;102634.44;;;2.36;100.00
64192;BME280;50497;50.720;-2.084;2023-01-26T02:05:25;102633.78;;;2.49;100.00
64192;BME280;50497;50.720;-2.084;2023-01-26T02:07:54;102615.97;;;2.37;100.00
64192;BME280;50497;50.720;-2.084;2023-01-26T02:10:24;102645.06;;;2.40;100.00
64192;BME280;50497;50.720;-2.084;2023-01-26T02:12:52;102642.41;;;2.40;100.00
64192;BME280;50497;50.720;-2.084;2023-01-26T02:15:20;102646.00;;;2.46;100.00
64192;BME280;50497;50.720;-2.084;2023-01-26T02:17:46;102647.88;;;2.50;100.00
64192;BME280;50497;50.720;-2.084;2023-01-26T02:20:24;102646.06;;;2.49;100.00
64192;BME280;50497;50.720;-2.084;2023-01-26T02:28:17;102637.00;;;2.31;100.00
64192;BME280;50497;50.720;-2.084;2023-01-26T02:30:43;102643.78;;;2.17;100.00
64192;BME280;50497;50.720;-2.084;2023-01-26T02:33:29;102622.66;;;2.17;100.00
64192;BME280;50497;50.720;-2.084;2023-01-26T02:35:55;102649.09;;;2.18;100.00
64192;BME280;50497;50.720;-2.084;2023-01-26T02:38:21;102648.09;;;2.13;100.00
64192;BME280;50497;50.720;-2.084;2023-01-26T02:40:53;102635.75;;;2.12;100.00
64192;BME280;50497;50.720;-2.084;2023-01-26T02:43:20;102647.22;;;2.13;100.00
64192;BME280;50497;50.720;-2.084;2023-01-26T02:45:48;102652.34;;;2.05;100.00
64192;BME280;50497;50.720;-2.084;2023-01-26T02:48:21;102652.41;;;2.08;100.00
64192;BME280;50497;50.720;-2.084;2023-01-26T02:51:09;102661.84;;;1.95;100.00
64192;BME280;50497;50.720;-2.084;2023-01-26T02:53:34;102653.94;;;1.95;100.00
64192;BME280;50497;50.720;-2.084;2023-01-26T02:55:59;102652.88;;;1.85;100.00
64192;BME280;50497;50.720;-2.084;2023-01-26T02:58:25;102659.66;;;1.73;100.00
64192;BME280;50497;50.720;-2.084;2023-01-26T03:00:51;102646.25;;;1.62;100.00
64192;BME280;50497;50.720;-2.084;2023-01-26T03:03:25;102670.81;;;2.03;100.00
64192;BME280;50497;50.720;-2.084;2023-01-26T03:06:09;102665.06;;;1.79;100.00
64192;BME280;50497;50.720;-2.084;2023-01-26T03:08:36;102659.50;;;1.65;100.00
64192;BME280;50497;50.720;-2.084;2023-01-26T03:11:02;102662.47;;;1.82;100.00
64192;BME280;50497;50.720;-2.084;2023-01-26T03:13:31;102666.78;;;1.77;100.00
64192;BME280;50497;50.720;-2.084;2023-01-26T03:15:59;102674.22;;;1.96;100.00
64192;BME280;50497;50.720;-2.084;2023-01-26T03:18:32;102677.53;;;1.88;100.00
64192;BME280;50497;50.720;-2.084;2023-01-26T03:21:16;102666.84;;;1.80;100.00
64192;BME280;50497;50.720;-2.084;2023-01-26T03:24:02;102675.81;;;1.88;100.00
64192;BME280;50497;50.720;-2.084;2023-01-26T03:26:46;102672.94;;;1.77;100.00
64192;BME280;50497;50.720;-2.084;2023-01-26T03:29:30;102663.38;;;1.84;100.00
64192;BME280;50497;50.720;-2.084;2023-01-26T03:31:56;102654.66;;;1.87;100.00
64192;BME280;50497;50.720;-2.084;2023-01-26T03:34:23;102672.06;;;2.24;100.00
64192;BME280;50497;50.720;-2.084;2023-01-26T03:36:48;102669.44;;;2.26;100.00
64192;BME280;50497;50.720;-2.084;2023-01-26T03:39:21;102665.84;;;2.20;100.00
64192;BME280;50497;50.720;-2.084;2023-01-26T03:42:05;102646.97;;;2.00;100.00
64192;BME280;50497;50.720;-2.084;2023-01-26T03:44:49;102658.84;;;2.22;100.00
64192;BME280;50497;50.720;-2.084;2023-01-26T03:47:34;102664.88;;;2.15;100.00
64192;BME280;50497;50.720;-2.084;2023-01-26T03:50:21;102649.22;;;1.79;100.00
64192;BME280;50497;50.720;-2.084;2023-01-26T03:53:16;102664.19;;;1.80;100.00
64192;BME280;50497;50.720;-2.084;2023-01-26T03:56:01;102663.53;;;1.90;100.00
64192;BME280;50497;50.720;-2.084;2023-01-26T03:58:56;102671.34;;;1.85;100.00
64192;BME280;50497;50.720;-2.084;2023-01-26T04:01:26;102644.19;;;1.91;100.00
64192;BME280;50497;50.720;-2.084;2023-01-26T04:03:57;102662.75;;;1.97;100.00
64192;BME280;50497;50.720;-2.084;2023-01-26T04:06:43;102642.28;;;1.84;100.00
64192;BME280;50497;50.720;-2.084;2023-01-26T04:09:28;102668.19;;;2.05;100.00
64192;BME280;50497;50.720;-2.084;2023-01-26T04:11:53;102668.25;;;2.08;100.00
64192;BME280;50497;50.720;-2.084;2023-01-26T04:14:22;102675.22;;;2.03;100.00
64192;BME280;50497;50.720;-2.084;2023-01-26T04:17:09;102664.50;;;1.95;100.00
64192;BME280;50497;50.720;-2.084;2023-01-26T04:19:53;102656.63;;;1.98;100.00
64192;BME280;50497;50.720;-2.084;2023-01-26T04:22:39;102665.44;;;1.99;100.00
64192;BME280;50497;50.720;-2.084;2023-01-26T04:25:11;102659.06;;;1.88;100.00
64192;BME280;50497;50.720;-2.084;2023-01-26T04:27:39;102674.22;;;1.96;100.00
64192;BME280;50497;50.720;-2.084;2023-01-26T04:30:05;102683.59;;;1.82;100.00
64192;BME280;50497;50.720;-2.084;2023-01-26T04:32:31;102679.28;;;1.87;100.00
64192;BME280;50497;50.720;-2.084;2023-01-26T04:35:00;102684.44;;;1.79;100.00
64192;BME280;50497;50.720;-2.084;2023-01-26T04:37:25;102692.09;;;1.67;100.00
64192;BME280;50497;50.720;-2.084;2023-01-26T04:39:55;102659.28;;;1.54;100.00
64192;BME280;50497;50.720;-2.084;2023-01-26T04:42:26;102686.09;;;1.76;100.00
64192;BME280;50497;50.720;-2.084;2023-01-26T04:44:52;102653.34;;;1.64;100.00
64192;BME280;50497;50.720;-2.084;2023-01-26T04:47:19;102653.22;;;1.58;100.00
64192;BME280;50497;50.720;-2.084;2023-01-26T04:49:49;102677.97;;;1.65;100.00
64192;BME280;50497;50.720;-2.084;2023-01-26T04:52:18;102676.72;;;1.47;100.00
64192;BME280;50497;50.720;-2.084;2023-01-26T04:54:49;102658.91;;;1.37;100.00
64192;BME280;50497;50.720;-2.084;2023-01-26T04:57:15;102685.38;;;1.40;100.00
64192;BME280;50497;50.720;-2.084;2023-01-26T04:59:44;102679.72;;;1.64;100.00
64192;BME280;50497;50.720;-2.084;2023-01-26T05:02:09;102686.69;;;1.62;100.00
64192;BME280;50497;50.720;-2.084;2023-01-26T05:04:35;102668.50;;;1.34;100.00
64192;BME280;50497;50.720;-2.084;2023-01-26T05:07:00;102690.59;;;1.39;100.00
64192;BME280;50497;50.720;-2.084;2023-01-26T05:09:36;102689.19;;;1.55;100.00
64192;BME280;50497;50.720;-2.084;2023-01-26T05:12:06;102689.84;;;1.43;100.00
64192;BME280;50497;50.720;-2.084;2023-01-26T05:14:50;102687.34;;;1.51;100.00
64192;BME280;50497;50.720;-2.084;2023-01-26T05:17:16;102701.16;;;1.39;100.00
64192;BME280;50497;50.720;-2.084;2023-01-26T05:19:41;102681.56;;;1.69;100.00
64192;BME280;50497;50.720;-2.084;2023-01-26T05:22:06;102689.78;;;1.84;100.00
64192;BME280;50497;50.720;-2.084;2023-01-26T05:24:40;102670.03;;;1.63;100.00
64192;BME280;50497;50.720;-2.084;2023-01-26T05:27:07;102681.56;;;1.69;100.00
64192;BME280;50497;50.720;-2.084;2023-01-26T05:29:50;102666.53;;;1.66;100.00
64192;BME280;50497;50.720;-2.084;2023-01-26T05:32:16;102680.53;;;1.62;100.00
64192;BME280;50497;50.720;-2.084;2023-01-26T05:34:41;102679.84;;;1.71;100.00
64192;BME280;50497;50.720;-2.084;2023-01-26T05:37:07;102681.75;;;1.78;100.00
64192;BME280;50497;50.720;-2.084;2023-01-26T05:39:39;102672.06;;;1.77;100.00
64192;BME280;50497;50.720;-2.084;2023-01-26T05:42:05;102671.38;;;1.87;100.00
64192;BME280;50497;50.720;-2.084;2023-01-26T05:44:30;102652.66;;;1.75;100.00
64192;BME280;50497;50.720;-2.084;2023-01-26T05:47:00;102667.81;;;1.85;100.00
64192;BME280;50497;50.720;-2.084;2023-01-26T05:49:32;102678.56;;;1.94;100.00
64192;BME280;50497;50.720;-2.084;2023-01-26T05:52:08;102666.88;;;1.81;100.00
64192;BME280;50497;50.720;-2.084;2023-01-26T05:54:41;102653.66;;;1.80;100.00
64192;BME280;50497;50.720;-2.084;2023-01-26T05:57:08;102674.00;;;1.87;100.00
64192;BME280;50497;50.720;-2.084;2023-01-26T05:59:33;102672.22;;;1.84;100.00
64192;BME280;50497;50.720;-2.084;2023-01-26T06:02:02;102673.16;;;1.88;100.00
64192;BME280;50497;50.720;-2.084;2023-01-26T06:04:28;102666.25;;;1.95;100.00
64192;BME280;50497;50.720;-2.084;2023-01-26T06:06:58;102665.38;;;1.96;100.00
64192;BME280;50497;50.720;-2.084;2023-01-26T06:09:25;102650.22;;;1.85;100.00
64192;BME280;50497;50.720;-2.084;2023-01-26T06:11:50;102658.47;;;2.01;100.00
64192;BME280;50497;50.720;-2.084;2023-01-26T06:14:19;102659.25;;;1.97;100.00
64192;BME280;50497;50.720;-2.084;2023-01-26T06:16:45;102661.72;;;1.89;100.00
64192;BME280;50497;50.720;-2.084;2023-01-26T06:19:21;102680.41;;;1.98;100.00
64192;BME280;50497;50.720;-2.084;2023-01-26T06:21:50;102682.84;;;1.89;100.00
64192;BME280;50497;50.720;-2.084;2023-01-26T06:24:18;102660.81;;;1.87;100.00
64192;BME280;50497;50.720;-2.084;2023-01-26T06:26:46;102673.09;;;1.85;100.00
64192;BME280;50497;50.720;-2.084;2023-01-26T06:29:13;102689.09;;;1.93;100.00
64192;BME280;50497;50.720;-2.084;2023-01-26T06:31:38;102689.09;;;1.93;100.00
64192;BME280;50497;50.720;-2.084;2023-01-26T06:34:11;102697.88;;;1.92;100.00
64192;BME280;50497;50.720;-2.084;2023-01-26T06:36:43;102701.31;;;1.89;100.00
64192;BME280;50497;50.720;-2.084;2023-01-26T06:39:10;102696.63;;;1.73;100.00
64192;BME280;50497;50.720;-2.084;2023-01-26T06:41:36;102715.25;;;1.82;100.00
64192;BME280;50497;50.720;-2.084;2023-01-26T06:44:07;102684.09;;;1.64;100.00
64192;BME280;50497;50.720;-2.084;2023-01-26T06:46:36;102702.53;;;1.62;100.00
64192;BME280;50497;50.720;-2.084;2023-01-26T06:49:08;102691.06;;;1.60;100.00
64192;BME280;50497;50.720;-2.084;2023-01-26T06:51:43;102723.91;;;1.75;100.00
64192;BME280;50497;50.720;-2.084;2023-01-26T06:54:13;102723.97;;;1.76;100.00
64192;BME280;50497;50.720;-2.084;2023-01-26T06:56:40;102730.09;;;1.75;100.00
64192;BME280;50497;50.720;-2.084;2023-01-26T06:59:09;102743.16;;;1.71;100.00
64192;BME280;50497;50.720;-2.084;2023-01-26T07:01:40;102750.94;;;1.63;100.00
64192;BME280;50497;50.720;-2.084;2023-01-26T07:04:11;102738.59;;;1.62;100.00
64192;BME280;50497;50.720;-2.084;2023-01-26T07:06:39;102756.41;;;1.72;100.00
64192;BME280;50497;50.720;-2.084;2023-01-26T07:09:05;102772.97;;;1.65;100.00
64192;BME280;50497;50.720;-2.084;2023-01-26T07:11:33;102770.28;;;1.63;100.00
64192;BME280;50497;50.720;-2.084;2023-01-26T07:13:58;102756.16;;;1.60;100.00
64192;BME280;50497;50.720;-2.084;2023-01-26T07:16:24;102773.22;;;1.77;100.00
64192;BME280;50497;50.720;-2.084;2023-01-26T07:18:52;102762.69;;;1.79;100.00
64192;BME280;50497;50.720;-2.084;2023-01-26T07:21:25;102773.28;;;1.80;100.00
64192;BME280;50497;50.720;-2.084;2023-01-26T07:23:54;102767.13;;;1.80;100.00
64192;BME280;50497;50.720;-2.084;2023-01-26T07:26:26;102766.09;;;1.73;100.00
64192;BME280;50497;50.720;-2.084;2023-01-26T07:28:55;102780.22;;;1.75;100.00
64192;BME280;50497;50.720;-2.084;2023-01-26T07:31:27;102774.06;;;1.75;100.00
64192;BME280;50497;50.720;-2.084;2023-01-26T07:33:59;102762.22;;;1.57;100.00
64192;BME280;50497;50.720;-2.084;2023-01-26T07:36:35;102787.22;;;1.73;100.00
64192;BME280;50497;50.720;-2.084;2023-01-26T07:39:04;102789.81;;;1.72;100.00
64192;BME280;50497;50.720;-2.084;2023-01-26T07:41:30;102782.91;;;1.77;100.00
64192;BME280;50497;50.720;-2.084;2023-01-26T07:44:07;102788.09;;;1.74;100.00
64192;BME280;50497;50.720;-2.084;2023-01-26T07:46:37;102780.25;;;1.77;100.00
64192;BME280;50497;50.720;-2.084;2023-01-26T07:49:02;102782.81;;;1.74;100.00
64192;BME280;50497;50.720;-2.084;2023-01-26T07:51:28;102779.22;;;1.70;100.00
64192;BME280;50497;50.720;-2.084;2023-01-26T07:53:57;102796.09;;;1.77;100.00
64192;BME280;50497;50.720;-2.084;2023-01-26T07:56:29;102797.94;;;1.81;100.00
64192;BME280;50497;50.720;-2.084;2023-01-26T07:58:54;102776.34;;;1.58;100.00
64192;BME280;50497;50.720;-2.084;2023-01-26T08:01:26;102789.16;;;1.82;100.00
64192;BME280;50497;50.720;-2.084;2023-01-26T08:03:52;102790.94;;;1.81;100.00
64192;BME280;50497;50.720;-2.084;2023-01-26T08:06:18;102793.00;;;1.96;100.00
64192;BME280;50497;50.720;-2.084;2023-01-26T08:08:48;102796.59;;;2.00;100.00
64192;BME280;50497;50.720;-2.084;2023-01-26T08:11:23;102798.38;;;2.02;100.00
64192;BME280;50497;50.720;-2.084;2023-01-26T08:13:51;102759.38;;;1.89;100.00
64192;BME280;50497;50.720;-2.084;2023-01-26T08:16:17;102795.69;;;1.98;100.00
64192;BME280;50497;50.720;-2.084;2023-01-26T08:18:48;102795.66;;;1.96;100.00
64192;BME280;50497;50.720;-2.084;2023-01-26T08:21:18;102805.28;;;1.94;100.00
64192;BME280;50497;50.720;-2.084;2023-01-26T08:23:50;102804.59;;;2.03;100.00
64192;BME280;50497;50.720;-2.084;2023-01-26T08:26:21;102803.56;;;1.96;100.00
64192;BME280;50497;50.720;-2.084;2023-01-26T08:28:54;102814.00;;;1.92;100.00
64192;BME280;50497;50.720;-2.084;2023-01-26T08:31:26;102814.78;;;1.88;100.00
64192;BME280;50497;50.720;-2.084;2023-01-26T08:33:52;102816.66;;;1.92;100.00
64192;BME280;50497;50.720;-2.084;2023-01-26T08:36:19;102813.91;;;1.87;100.00
64192;BME280;50497;50.720;-2.084;2023-01-26T08:38:49;102824.34;;;1.82;100.00
64192;BME280;50497;50.720;-2.084;2023-01-26T08:41:21;102831.41;;;1.82;100.00
64192;BME280;50497;50.720;-2.084;2023-01-26T08:43:46;102834.84;;;1.78;100.00
64192;BME280;50497;50.720;-2.084;2023-01-26T08:46:15;102821.72;;;1.82;100.00
64192;BME280;50497;50.720;-2.084;2023-01-26T08:48:40;102823.59;;;1.87;100.00
64192;BME280;50497;50.720;-2.084;2023-01-26T08:51:07;102830.56;;;1.83;100.00
64192;BME280;50497;50.720;-2.084;2023-01-26T08:53:36;102823.19;;;1.68;100.00
64192;BME280;50497;50.720;-2.084;2023-01-26T08:56:03;102804.19;;;1.84;100.00
64192;BME280;50497;50.720;-2.084;2023-01-26T08:58:29;102826.41;;;1.94;100.00
64192;BME280;50497;50.720;-2.084;2023-01-26T09:00:58;102808.44;;;1.78;100.00
64192;BME280;50497;50.720;-2.084;2023-01-26T09:03:23;102825.47;;;1.92;100.00
64192;BME280;50497;50.720;-2.084;2023-01-26T09:05:57;102832.06;;;2.13;100.00
64192;BME280;50497;50.720;-2.084;2023-01-26T09:08:26;102819.66;;;2.09;100.00
64192;BME280;50497;50.720;-2.084;2023-01-26T09:10:59;102830.22;;;2.09;100.00
64192;BME280;50497;50.720;-2.084;2023-01-26T09:13:26;102814.97;;;1.95;100.00
64192;BME280;50497;50.720;-2.084;2023-01-26T09:16:01;102831.44;;;2.25;100.00
64192;BME280;50497;50.720;-2.084;2023-01-26T09:18:39;102831.56;;;2.32;100.00
64192;BME280;50497;50.720;-2.084;2023-01-26T09:21:06;102829.19;;;2.45;100.00
64192;BME280;50497;50.720;-2.084;2023-01-26T09:23:35;102832.69;;;2.44;100.00
64192;BME280;50497;50.720;-2.084;2023-01-26T09:26:01;102820.28;;;2.39;100.00
64192;BME280;50497;50.720;-2.084;2023-01-26T09:28:39;102833.88;;;2.58;100.00
64192;BME280;50497;50.720;-2.084;2023-01-26T09:31:12;102828.75;;;2.66;100.00
64192;BME280;50497;50.720;-2.084;2023-01-26T09:33:41;102850.97;;;2.78;100.00
64192;BME280;50497;50.720;-2.084;2023-01-26T09:36:11;102851.03;;;2.82;100.00
64192;BME280;50497;50.720;-2.084;2023-01-26T09:38:39;102842.47;;;2.95;100.00
64192;BME280;50497;50.720;-2.084;2023-01-26T09:41:27;102864.03;;;3.18;100.00
64192;BME280;50497;50.720;-2.084;2023-01-26T09:44:05;102851.28;;;3.46;100.00
64192;BME280;50497;50.720;-2.084;2023-01-26T09:49:47;102866.41;;;3.55;100.00
64192;BME280;50497;50.720;-2.084;2023-01-26T09:52:27;102862.41;;;3.81;100.00
64192;BME280;50497;50.720;-2.084;2023-01-26T09:54:54;102862.44;;;3.84;100.00
64192;BME280;50497;50.720;-2.084;2023-01-26T09:57:41;102865.31;;;4.00;100.00
64192;BME280;50497;50.720;-2.084;2023-01-26T10:00:15;102868.97;;;4.10;100.00
64192;BME280;50497;50.720;-2.084;2023-01-26T10:03:31;102872.84;;;4.35;100.00
64192;BME280;50497;50.720;-2.084;2023-01-26T10:06:07;102876.47;;;4.41;100.00
64192;BME280;50497;50.720;-2.084;2023-01-26T10:08:43;102883.41;;;4.30;100.00
64192;BME280;50497;50.720;-2.084;2023-01-26T10:13:55;102901.03;;;4.30;100.00
64192;BME280;50497;50.720;-2.084;2023-01-26T10:16:22;102895.53;;;4.13;100.00
64192;BME280;50497;50.720;-2.084;2023-01-26T10:19:00;102905.44;;;4.28;100.00
64192;BME280;50497;50.720;-2.084;2023-01-26T10:21:37;102922.84;;;4.09;100.00
64192;BME280;50497;50.720;-2.084;2023-01-26T10:24:03;102918.44;;;4.09;100.00
64192;BME280;50497;50.720;-2.084;2023-01-26T10:26:35;102898.72;;;3.88;100.00
64192;BME280;50497;50.720;-2.084;2023-01-26T10:29:05;102923.84;;;4.18;100.00
64192;BME280;50497;50.720;-2.084;2023-01-26T10:31:32;102913.66;;;4.48;100.00
64192;BME280;50497;50.720;-2.084;2023-01-26T10:36:32;102915.31;;;5.17;100.00
64192;BME280;50497;50.720;-2.084;2023-01-26T10:39:09;102920.09;;;5.54;100.00
64192;BME280;50497;50.720;-2.084;2023-01-26T10:41:35;102941.75;;;6.03;100.00
64192;BME280;50497;50.720;-2.084;2023-01-26T10:44:22;102956.09;;;6.28;100.00
64192;BME280;50497;50.720;-2.084;2023-01-26T10:47:10;102948.44;;;6.99;100.00
64192;BME280;50497;50.720;-2.084;2023-01-26T10:49:42;102984.00;;;7.35;100.00
64192;BME280;50497;50.720;-2.084;2023-01-26T10:54:41;103014.16;;;7.25;100.00
64192;BME280;50497;50.720;-2.084;2023-01-26T11:02:27;103009.72;;;7.29;100.00
64192;BME280;50497;50.720;-2.084;2023-01-26T11:07:39;103031.75;;;6.80;100.00
64192;BME280;50497;50.720;-2.084;2023-01-26T11:12:50;102995.50;;;7.13;100.00
64192;BME280;50497;50.720;-2.084;2023-01-26T11:15:22;102995.59;;;8.22;100.00
64192;BME280;50497;50.720;-2.084;2023-01-26T11:18:31;103009.44;;;9.38;100.00
64192;BME280;50497;50.720;-2.084;2023-01-26T11:37:45;103033.78;;;8.74;100.00
64192;BME280;50497;50.720;-2.084;2023-01-26T11:50:52;102984.88;;;7.14;100.00
64192;BME280;50497;50.720;-2.084;2023-01-26T11:53:30;102978.66;;;7.21;100.00
64192;BME280;50497;50.720;-2.084;2023-01-26T11:58:54;102968.06;;;7.51;100.00
64192;BME280;50497;50.720;-2.084;2023-01-26T12:01:30;102979.47;;;6.90;100.00
64192;BME280;50497;50.720;-2.084;2023-01-26T12:03:59;102988.94;;;6.38;100.00
64192;BME280;50497;50.720;-2.084;2023-01-26T12:06:36;102957.84;;;6.25;100.00
64192;BME280;50497;50.720;-2.084;2023-01-26T12:12:52;102971.16;;;6.25;100.00
64192;BME280;50497;50.720;-2.084;2023-01-26T12:15:23;102945.31;;;6.05;100.00
64192;BME280;50497;50.720;-2.084;2023-01-26T12:20:47;102941.94;;;6.31;100.00
64192;BME280;50497;50.720;-2.084;2023-01-26T12:25:59;102950.81;;;6.33;100.00
64192;BME280;50497;50.720;-2.084;2023-01-26T12:31:44;102944.50;;;6.19;100.00
64192;BME280;50497;50.720;-2.084;2023-01-26T12:34:13;102941.03;;;6.31;100.00
64192;BME280;50497;50.720;-2.084;2023-01-26T12:36:51;102915.38;;;6.33;100.00
64192;BME280;50497;50.720;-2.084;2023-01-26T12:42:18;102932.16;;;6.25;100.00
64192;BME280;50497;50.720;-2.084;2023-01-26T12:44:59;102900.16;;;6.08;100.00
64192;BME280;50497;50.720;-2.084;2023-01-26T12:47:34;102896.63;;;6.08;100.00
64192;BME280;50497;50.720;-2.084;2023-01-26T12:50:03;102911.78;;;6.29;100.00
64192;BME280;50497;50.720;-2.084;2023-01-26T12:55:20;102910.06;;;6.37;100.00
64192;BME280;50497;50.720;-2.084;2023-01-26T12:57:52;102903.91;;;6.51;100.00
64192;BME280;50497;50.720;-2.084;2023-01-26T13:02:48;102905.00;;;7.27;100.00
64192;BME280;50497;50.720;-2.084;2023-01-26T13:05:27;102926.31;;;8.07;100.00
64192;BME280;50497;50.720;-2.084;2023-01-26T13:07:56;102918.19;;;8.56;100.00
64192;BME280;50497;50.720;-2.084;2023-01-26T13:10:25;102926.75;;;9.21;100.00
64192;BME280;50497;50.720;-2.084;2023-01-26T13:15:41;102931.13;;;9.30;100.00
64192;BME280;50497;50.720;-2.084;2023-01-26T13:18:11;102913.53;;;8.98;100.00
64192;BME280;50497;50.720;-2.084;2023-01-26T13:20:49;102939.25;;;9.13;100.00
64192;BME280;50497;50.720;-2.084;2023-01-26T13:28:39;102907.66;;;8.05;100.00
64192;BME280;50497;50.720;-2.084;2023-01-26T13:31:06;102917.41;;;8.14;100.00
64192;BME280;50497;50.720;-2.084;2023-01-26T13:33:33;102914.78;;;7.97;100.00
64192;BME280;50497;50.720;-2.084;2023-01-26T13:36:03;102901.47;;;7.71;100.00
64192;BME280;50497;50.720;-2.084;2023-01-26T13:38:41;102884.59;;;7.50;100.00
64192;BME280;50497;50.720;-2.084;2023-01-26T13:41:20;102905.03;;;7.57;100.00
64192;BME280;50497;50.720;-2.084;2023-01-26T13:43:55;102903.25;;;7.87;100.00
64192;BME280;50497;50.720;-2.084;2023-01-26T13:48:57;102872.19;;;7.29;100.00
64192;BME280;50497;50.720;-2.084;2023-01-26T13:51:31;102899.72;;;7.64;100.00
64192;BME280;50497;50.720;-2.084;2023-01-26T13:54:02;102895.25;;;7.41;100.00
64192;BME280;50497;50.720;-2.084;2023-01-26T13:56:36;102873.09;;;7.40;100.00
64192;BME280;50497;50.720;-2.084;2023-01-26T14:01:28;102896.16;;;7.46;100.00
64192;BME280;50497;50.720;-2.084;2023-01-26T14:04:02;102909.47;;;7.52;100.00
64192;BME280;50497;50.720;-2.084;2023-01-26T14:06:28;102925.44;;;7.37;100.00
64192;BME280;50497;50.720;-2.084;2023-01-26T14:08:56;102907.69;;;7.20;100.00
64192;BME280;50497;50.720;-2.084;2023-01-26T14:11:24;102889.03;;;7.20;100.00
64192;BME280;50497;50.720;-2.084;2023-01-26T14:13:55;102897.00;;;7.13;100.00
64192;BME280;50497;50.720;-2.084;2023-01-26T14:16:27;102926.28;;;7.08;100.00
64192;BME280;50497;50.720;-2.084;2023-01-26T14:19:11;102915.63;;;6.96;100.00
64192;BME280;50497;50.720;-2.084;2023-01-26T14:24:32;102924.50;;;7.02;100.00
64192;BME280;50497;50.720;-2.084;2023-01-26T14:26:59;102920.03;;;6.91;100.00
64192;BME280;50497;50.720;-2.084;2023-01-26T14:29:27;102914.75;;;7.06;100.00
64192;BME280;50497;50.720;-2.084;2023-01-26T14:31:57;102914.72;;;7.03;100.00
64192;BME280;50497;50.720;-2.084;2023-01-26T14:34:25;102920.94;;;6.96;100.00